sensor_id;sensor_type;location;lat;lon;timestamp;temperature;humidity
19536;HTU21D;9913;51.168;4.124;2022-12-08T00:02:03;3.99;89.68
19536;HTU21D;9913;51.168;4.124;2022-12-08T00:04:32;3.93;89.74
19536;HTU21D;9913;51.168;4.124;2022-12-08T00:07:20;3.89;89.69
19536;HTU21D;9913;51.168;4.124;2022-12-08T00:10:07;3.90;89.63
19536;HTU21D;9913;51.168;4.124;2022-12-08T00:12:57;3.92;89.46
19536;HTU21D;9913;51.168;4.124;2022-12-08T00:15:27;3.89;89.44
19536;HTU21D;9913;51.168;4.124;2022-12-08T00:17:55;3.86;89.44
19536;HTU21D;9913;51.168;4.124;2022-12-08T00:20:23;3.80;89.44
19536;HTU21D;9913;51.168;4.124;2022-12-08T00:22:52;3.76;89.35
19536;HTU21D;9913;51.168;4.124;2022-12-08T00:25:23;3.64;89.43
19536;HTU21D;9913;51.168;4.124;2022-12-08T00:27:53;3.56;89.15
19536;HTU21D;9913;51.168;4.124;2022-12-08T00:30:21;3.52;88.80
19536;HTU21D;9913;51.168;4.124;2022-12-08T00:32:51;3.46;88.68
19536;HTU21D;9913;51.168;4.124;2022-12-08T00:35:19;3.33;88.42
19536;HTU21D;9913;51.168;4.124;2022-12-08T00:37:48;3.34;88.32
19536;HTU21D;9913;51.168;4.124;2022-12-08T00:40:16;3.23;88.22
19536;HTU21D;9913;51.168;4.124;2022-12-08T00:42:44;3.36;88.23
19536;HTU21D;9913;51.168;4.124;2022-12-08T00:45:13;3.32;88.41
19536;HTU21D;9913;51.168;4.124;2022-12-08T00:47:41;3.33;88.31
19536;HTU21D;9913;51.168;4.124;2022-12-08T00:50:11;3.32;88.25
19536;HTU21D;9913;51.168;4.124;2022-12-08T00:52:39;3.29;88.24
19536;HTU21D;9913;51.168;4.124;2022-12-08T00:55:08;3.28;88.32
19536;HTU21D;9913;51.168;4.124;2022-12-08T00:57:36;3.26;88.45
19536;HTU21D;9913;51.168;4.124;2022-12-08T01:00:05;3.13;88.60
19536;HTU21D;9913;51.168;4.124;2022-12-08T01:02:34;3.10;88.53
19536;HTU21D;9913;51.168;4.124;2022-12-08T01:05:03;3.05;88.66
19536;HTU21D;9913;51.168;4.124;2022-12-08T01:07:33;2.99;88.76
19536;HTU21D;9913;51.168;4.124;2022-12-08T01:10:02;2.89;88.70
19536;HTU21D;9913;51.168;4.124;2022-12-08T01:12:31;2.90;88.86
19536;HTU21D;9913;51.168;4.124;2022-12-08T01:14:59;2.88;88.97
19536;HTU21D;9913;51.168;4.124;2022-12-08T01:17:29;2.87;89.12
19536;HTU21D;9913;51.168;4.124;2022-12-08T01:19:58;2.94;89.21
19536;HTU21D;9913;51.168;4.124;2022-12-08T01:22:28;3.02;89.25
19536;HTU21D;9913;51.168;4.124;2022-12-08T01:24:58;2.91;89.08
19536;HTU21D;9913;51.168;4.124;2022-12-08T01:27:26;2.88;89.05
19536;HTU21D;9913;51.168;4.124;2022-12-08T01:29:55;2.83;89.02
19536;HTU21D;9913;51.168;4.124;2022-12-08T01:32:23;2.74;89.02
19536;HTU21D;9913;51.168;4.124;2022-12-08T01:34:51;2.68;89.11
19536;HTU21D;9913;51.168;4.124;2022-12-08T01:37:19;2.59;89.19
19536;HTU21D;9913;51.168;4.124;2022-12-08T01:39:48;2.55;89.26
19536;HTU21D;9913;51.168;4.124;2022-12-08T01:42:21;2.58;89.32
19536;HTU21D;9913;51.168;4.124;2022-12-08T01:44:58;2.58;89.35
19536;HTU21D;9913;51.168;4.124;2022-12-08T01:47:32;2.55;89.38
19536;HTU21D;9913;51.168;4.124;2022-12-08T01:50:06;2.51;89.38
19536;HTU21D;9913;51.168;4.124;2022-12-08T01:52:38;2.50;89.39
19536;HTU21D;9913;51.168;4.124;2022-12-08T01:55:11;2.39;89.38
19536;HTU21D;9913;51.168;4.124;2022-12-08T01:57:48;2.39;89.57
19536;HTU21D;9913;51.168;4.124;2022-12-08T02:00:19;2.40;89.72
19536;HTU21D;9913;51.168;4.124;2022-12-08T02:02:56;2.36;89.77
19536;HTU21D;9913;51.168;4.124;2022-12-08T02:05:30;2.38;89.81
19536;HTU21D;9913;51.168;4.124;2022-12-08T02:08:00;2.35;89.70
19536;HTU21D;9913;51.168;4.124;2022-12-08T02:10:33;2.20;89.47
19536;HTU21D;9913;51.168;4.124;2022-12-08T02:13:06;2.22;89.53
19536;HTU21D;9913;51.168;4.124;2022-12-08T02:15:46;2.24;89.61
19536;HTU21D;9913;51.168;4.124;2022-12-08T02:18:33;2.17;89.54
19536;HTU21D;9913;51.168;4.124;2022-12-08T02:21:08;2.11;89.54
19536;HTU21D;9913;51.168;4.124;2022-12-08T02:23:46;2.15;89.59
19536;HTU21D;9913;51.168;4.124;2022-12-08T02:26:54;2.24;89.84
19536;HTU21D;9913;51.168;4.124;2022-12-08T02:29:44;2.21;89.80
19536;HTU21D;9913;51.168;4.124;2022-12-08T02:32:38;2.27;89.94
19536;HTU21D;9913;51.168;4.124;2022-12-08T02:35:12;2.32;90.01
19536;HTU21D;9913;51.168;4.124;2022-12-08T02:37:52;2.40;90.04
19536;HTU21D;9913;51.168;4.124;2022-12-08T02:40:27;2.42;90.06
19536;HTU21D;9913;51.168;4.124;2022-12-08T02:43:00;2.46;89.97
19536;HTU21D;9913;51.168;4.124;2022-12-08T02:45:32;2.54;90.02
19536;HTU21D;9913;51.168;4.124;2022-12-08T02:48:01;2.55;89.90
19536;HTU21D;9913;51.168;4.124;2022-12-08T02:50:33;2.60;89.97
19536;HTU21D;9913;51.168;4.124;2022-12-08T02:53:01;2.71;89.94
19536;HTU21D;9913;51.168;4.124;2022-12-08T02:55:36;2.71;89.90
19536;HTU21D;9913;51.168;4.124;2022-12-08T02:58:41;2.75;89.89
19536;HTU21D;9913;51.168;4.124;2022-12-08T03:01:29;2.85;89.66
19536;HTU21D;9913;51.168;4.124;2022-12-08T03:04:03;2.89;89.36
19536;HTU21D;9913;51.168;4.124;2022-12-08T03:06:41;2.91;89.28
19536;HTU21D;9913;51.168;4.124;2022-12-08T03:09:17;2.95;89.28
19536;HTU21D;9913;51.168;4.124;2022-12-08T03:11:53;3.05;89.25
19536;HTU21D;9913;51.168;4.124;2022-12-08T03:14:24;3.13;89.02
19536;HTU21D;9913;51.168;4.124;2022-12-08T03:16:57;3.12;88.70
19536;HTU21D;9913;51.168;4.124;2022-12-08T03:19:29;3.14;88.67
19536;HTU21D;9913;51.168;4.124;2022-12-08T03:22:02;3.15;88.66
19536;HTU21D;9913;51.168;4.124;2022-12-08T03:24:34;3.19;88.57
19536;HTU21D;9913;51.168;4.124;2022-12-08T03:27:06;3.25;88.45
19536;HTU21D;9913;51.168;4.124;2022-12-08T03:29:35;3.26;88.33
19536;HTU21D;9913;51.168;4.124;2022-12-08T03:32:08;3.27;88.08
19536;HTU21D;9913;51.168;4.124;2022-12-08T03:34:45;3.28;88.02
19536;HTU21D;9913;51.168;4.124;2022-12-08T03:37:19;3.27;87.86
19536;HTU21D;9913;51.168;4.124;2022-12-08T03:39:50;3.27;88.01
19536;HTU21D;9913;51.168;4.124;2022-12-08T03:42:21;3.24;88.22
19536;HTU21D;9913;51.168;4.124;2022-12-08T03:44:49;3.23;88.06
19536;HTU21D;9913;51.168;4.124;2022-12-08T03:47:17;3.18;87.98
19536;HTU21D;9913;51.168;4.124;2022-12-08T03:49:46;3.21;87.70
19536;HTU21D;9913;51.168;4.124;2022-12-08T03:52:14;3.18;87.44
19536;HTU21D;9913;51.168;4.124;2022-12-08T03:54:44;3.17;87.46
19536;HTU21D;9913;51.168;4.124;2022-12-08T03:57:13;3.16;87.43
19536;HTU21D;9913;51.168;4.124;2022-12-08T03:59:41;3.17;87.19
19536;HTU21D;9913;51.168;4.124;2022-12-08T04:02:09;3.20;87.37
19536;HTU21D;9913;51.168;4.124;2022-12-08T04:04:38;3.24;87.26
19536;HTU21D;9913;51.168;4.124;2022-12-08T04:07:06;3.29;87.06
19536;HTU21D;9913;51.168;4.124;2022-12-08T04:09:34;3.29;86.72
19536;HTU21D;9913;51.168;4.124;2022-12-08T04:12:04;3.29;86.45
19536;HTU21D;9913;51.168;4.124;2022-12-08T04:14:33;3.29;86.54
19536;HTU21D;9913;51.168;4.124;2022-12-08T04:17:01;3.31;86.70
19536;HTU21D;9913;51.168;4.124;2022-12-08T04:19:30;3.29;86.90
19536;HTU21D;9913;51.168;4.124;2022-12-08T04:21:58;3.34;87.01
19536;HTU21D;9913;51.168;4.124;2022-12-08T04:24:26;3.27;86.86
19536;HTU21D;9913;51.168;4.124;2022-12-08T04:26:55;3.28;86.44
19536;HTU21D;9913;51.168;4.124;2022-12-08T04:29:24;3.24;86.15
19536;HTU21D;9913;51.168;4.124;2022-12-08T04:31:52;3.27;86.29
19536;HTU21D;9913;51.168;4.124;2022-12-08T04:34:21;3.24;86.24
19536;HTU21D;9913;51.168;4.124;2022-12-08T04:36:49;3.25;86.19
19536;HTU21D;9913;51.168;4.124;2022-12-08T04:39:17;3.25;85.67
19536;HTU21D;9913;51.168;4.124;2022-12-08T04:41:46;3.24;85.71
19536;HTU21D;9913;51.168;4.124;2022-12-08T04:44:14;3.26;85.82
19536;HTU21D;9913;51.168;4.124;2022-12-08T04:46:45;3.19;85.61
19536;HTU21D;9913;51.168;4.124;2022-12-08T04:49:13;3.18;85.37
19536;HTU21D;9913;51.168;4.124;2022-12-08T04:51:41;3.19;85.35
19536;HTU21D;9913;51.168;4.124;2022-12-08T04:54:10;3.21;85.34
19536;HTU21D;9913;51.168;4.124;2022-12-08T04:56:38;3.16;85.38
19536;HTU21D;9913;51.168;4.124;2022-12-08T04:59:06;3.16;85.26
19536;HTU21D;9913;51.168;4.124;2022-12-08T05:01:35;3.14;85.28
19536;HTU21D;9913;51.168;4.124;2022-12-08T05:04:05;3.06;85.33
19536;HTU21D;9913;51.168;4.124;2022-12-08T05:06:33;3.04;85.18
19536;HTU21D;9913;51.168;4.124;2022-12-08T05:09:01;3.03;85.19
19536;HTU21D;9913;51.168;4.124;2022-12-08T05:11:30;3.03;85.44
19536;HTU21D;9913;51.168;4.124;2022-12-08T05:13:58;2.96;85.60
19536;HTU21D;9913;51.168;4.124;2022-12-08T05:16:26;2.94;85.60
19536;HTU21D;9913;51.168;4.124;2022-12-08T05:18:55;2.98;85.55
19536;HTU21D;9913;51.168;4.124;2022-12-08T05:21:24;2.93;85.60
19536;HTU21D;9913;51.168;4.124;2022-12-08T05:23:53;2.94;85.22
19536;HTU21D;9913;51.168;4.124;2022-12-08T05:26:21;2.93;85.29
19536;HTU21D;9913;51.168;4.124;2022-12-08T05:28:49;2.95;85.36
19536;HTU21D;9913;51.168;4.124;2022-12-08T05:31:18;2.91;85.22
19536;HTU21D;9913;51.168;4.124;2022-12-08T05:33:48;2.88;85.22
19536;HTU21D;9913;51.168;4.124;2022-12-08T05:36:17;2.90;85.39
19536;HTU21D;9913;51.168;4.124;2022-12-08T05:38:47;2.89;85.13
19536;HTU21D;9913;51.168;4.124;2022-12-08T05:41:17;2.90;84.97
19536;HTU21D;9913;51.168;4.124;2022-12-08T05:43:46;2.87;84.87
19536;HTU21D;9913;51.168;4.124;2022-12-08T05:46:15;2.86;85.02
19536;HTU21D;9913;51.168;4.124;2022-12-08T05:48:44;2.82;85.06
19536;HTU21D;9913;51.168;4.124;2022-12-08T05:51:16;2.84;85.26
19536;HTU21D;9913;51.168;4.124;2022-12-08T05:53:48;2.81;85.21
19536;HTU21D;9913;51.168;4.124;2022-12-08T05:56:17;2.85;85.56
19536;HTU21D;9913;51.168;4.124;2022-12-08T05:58:46;2.81;85.41
19536;HTU21D;9913;51.168;4.124;2022-12-08T06:01:19;2.86;85.35
19536;HTU21D;9913;51.168;4.124;2022-12-08T06:03:48;2.83;85.09
19536;HTU21D;9913;51.168;4.124;2022-12-08T06:06:17;2.78;85.19
19536;HTU21D;9913;51.168;4.124;2022-12-08T06:08:47;2.80;85.44
19536;HTU21D;9913;51.168;4.124;2022-12-08T06:11:20;2.74;85.51
19536;HTU21D;9913;51.168;4.124;2022-12-08T06:13:49;2.74;85.69
19536;HTU21D;9913;51.168;4.124;2022-12-08T06:16:17;2.73;85.76
19536;HTU21D;9913;51.168;4.124;2022-12-08T06:18:46;2.74;85.92
19536;HTU21D;9913;51.168;4.124;2022-12-08T06:21:15;2.74;86.23
19536;HTU21D;9913;51.168;4.124;2022-12-08T06:23:48;2.80;86.05
19536;HTU21D;9913;51.168;4.124;2022-12-08T06:26:17;2.75;86.02
19536;HTU21D;9913;51.168;4.124;2022-12-08T06:28:45;2.79;86.02
19536;HTU21D;9913;51.168;4.124;2022-12-08T06:31:16;2.85;86.08
19536;HTU21D;9913;51.168;4.124;2022-12-08T06:33:45;2.83;85.87
19536;HTU21D;9913;51.168;4.124;2022-12-08T06:36:15;2.82;85.73
19536;HTU21D;9913;51.168;4.124;2022-12-08T06:38:44;2.80;85.83
19536;HTU21D;9913;51.168;4.124;2022-12-08T06:41:14;2.80;85.92
19536;HTU21D;9913;51.168;4.124;2022-12-08T06:43:42;2.76;85.82
19536;HTU21D;9913;51.168;4.124;2022-12-08T06:46:18;2.74;85.71
19536;HTU21D;9913;51.168;4.124;2022-12-08T06:48:46;2.78;85.73
19536;HTU21D;9913;51.168;4.124;2022-12-08T06:51:18;2.75;85.67
19536;HTU21D;9913;51.168;4.124;2022-12-08T06:53:46;2.78;86.00
19536;HTU21D;9913;51.168;4.124;2022-12-08T06:56:16;2.80;85.95
19536;HTU21D;9913;51.168;4.124;2022-12-08T06:58:46;2.81;85.95
19536;HTU21D;9913;51.168;4.124;2022-12-08T07:01:18;2.84;85.98
19536;HTU21D;9913;51.168;4.124;2022-12-08T07:03:47;2.91;85.87
19536;HTU21D;9913;51.168;4.124;2022-12-08T07:06:18;2.91;85.61
19536;HTU21D;9913;51.168;4.124;2022-12-08T07:08:47;2.88;85.45
19536;HTU21D;9913;51.168;4.124;2022-12-08T07:11:17;2.88;85.25
19536;HTU21D;9913;51.168;4.124;2022-12-08T07:13:49;2.86;85.42
19536;HTU21D;9913;51.168;4.124;2022-12-08T07:16:17;2.90;85.59
19536;HTU21D;9913;51.168;4.124;2022-12-08T07:18:45;2.89;85.64
19536;HTU21D;9913;51.168;4.124;2022-12-08T07:21:14;2.91;85.59
19536;HTU21D;9913;51.168;4.124;2022-12-08T07:23:45;2.91;85.38
19536;HTU21D;9913;51.168;4.124;2022-12-08T07:26:21;2.93;85.03
19536;HTU21D;9913;51.168;4.124;2022-12-08T07:28:49;2.90;84.74
19536;HTU21D;9913;51.168;4.124;2022-12-08T07:31:19;2.93;84.93
19536;HTU21D;9913;51.168;4.124;2022-12-08T07:33:48;2.86;84.90
19536;HTU21D;9913;51.168;4.124;2022-12-08T07:36:16;2.88;84.41
19536;HTU21D;9913;51.168;4.124;2022-12-08T07:38:45;2.85;84.35
19536;HTU21D;9913;51.168;4.124;2022-12-08T07:41:14;2.85;84.19
19536;HTU21D;9913;51.168;4.124;2022-12-08T07:43:44;2.86;83.85
19536;HTU21D;9913;51.168;4.124;2022-12-08T07:46:13;2.86;83.65
19536;HTU21D;9913;51.168;4.124;2022-12-08T07:48:42;2.89;83.58
19536;HTU21D;9913;51.168;4.124;2022-12-08T07:51:13;2.85;83.72
19536;HTU21D;9913;51.168;4.124;2022-12-08T07:53:46;2.86;83.74
19536;HTU21D;9913;51.168;4.124;2022-12-08T07:56:21;2.85;83.77
19536;HTU21D;9913;51.168;4.124;2022-12-08T07:58:50;2.82;83.87
19536;HTU21D;9913;51.168;4.124;2022-12-08T08:01:24;2.88;83.73
19536;HTU21D;9913;51.168;4.124;2022-12-08T08:03:54;2.86;83.70
19536;HTU21D;9913;51.168;4.124;2022-12-08T08:06:23;2.89;83.65
19536;HTU21D;9913;51.168;4.124;2022-12-08T08:08:51;2.94;83.76
19536;HTU21D;9913;51.168;4.124;2022-12-08T08:11:20;2.91;83.49
19536;HTU21D;9913;51.168;4.124;2022-12-08T08:13:50;2.93;83.23
19536;HTU21D;9913;51.168;4.124;2022-12-08T08:16:19;2.97;83.33
19536;HTU21D;9913;51.168;4.124;2022-12-08T08:18:50;2.99;83.34
19536;HTU21D;9913;51.168;4.124;2022-12-08T08:21:19;2.97;83.36
19536;HTU21D;9913;51.168;4.124;2022-12-08T08:24:08;3.00;83.10
19536;HTU21D;9913;51.168;4.124;2022-12-08T08:26:36;3.00;83.05
19536;HTU21D;9913;51.168;4.124;2022-12-08T08:29:06;2.96;82.74
19536;HTU21D;9913;51.168;4.124;2022-12-08T08:31:34;3.01;82.49
19536;HTU21D;9913;51.168;4.124;2022-12-08T08:34:03;3.01;82.63
19536;HTU21D;9913;51.168;4.124;2022-12-08T08:36:32;3.02;82.40
19536;HTU21D;9913;51.168;4.124;2022-12-08T08:39:01;3.00;82.56
19536;HTU21D;9913;51.168;4.124;2022-12-08T08:41:29;2.98;82.28
19536;HTU21D;9913;51.168;4.124;2022-12-08T08:43:58;2.96;82.27
19536;HTU21D;9913;51.168;4.124;2022-12-08T08:46:27;2.94;82.02
19536;HTU21D;9913;51.168;4.124;2022-12-08T08:48:56;2.96;81.82
19536;HTU21D;9913;51.168;4.124;2022-12-08T08:51:24;2.89;81.97
19536;HTU21D;9913;51.168;4.124;2022-12-08T08:53:53;2.86;82.13
19536;HTU21D;9913;51.168;4.124;2022-12-08T08:56:21;2.82;82.41
19536;HTU21D;9913;51.168;4.124;2022-12-08T08:58:51;2.78;82.41
19536;HTU21D;9913;51.168;4.124;2022-12-08T09:01:21;2.72;82.58
19536;HTU21D;9913;51.168;4.124;2022-12-08T09:03:52;2.69;82.71
19536;HTU21D;9913;51.168;4.124;2022-12-08T09:06:22;2.69;82.71
19536;HTU21D;9913;51.168;4.124;2022-12-08T09:08:51;2.65;82.51
19536;HTU21D;9913;51.168;4.124;2022-12-08T09:11:19;2.59;82.62
19536;HTU21D;9913;51.168;4.124;2022-12-08T09:13:51;2.64;82.75
19536;HTU21D;9913;51.168;4.124;2022-12-08T09:16:21;2.65;82.60
19536;HTU21D;9913;51.168;4.124;2022-12-08T09:18:49;2.76;82.62
19536;HTU21D;9913;51.168;4.124;2022-12-08T09:21:22;2.89;82.28
19536;HTU21D;9913;51.168;4.124;2022-12-08T09:23:54;2.99;82.30
19536;HTU21D;9913;51.168;4.124;2022-12-08T09:26:23;3.11;81.91
19536;HTU21D;9913;51.168;4.124;2022-12-08T09:28:53;3.17;81.47
19536;HTU21D;9913;51.168;4.124;2022-12-08T09:31:22;3.23;81.09
19536;HTU21D;9913;51.168;4.124;2022-12-08T09:33:51;3.25;81.16
19536;HTU21D;9913;51.168;4.124;2022-12-08T09:36:21;3.24;80.88
19536;HTU21D;9913;51.168;4.124;2022-12-08T09:38:50;3.39;80.91
19536;HTU21D;9913;51.168;4.124;2022-12-08T09:41:25;3.70;80.59
19536;HTU21D;9913;51.168;4.124;2022-12-08T09:44:51;4.06;80.17
19536;HTU21D;9913;51.168;4.124;2022-12-08T09:47:25;4.36;79.75
19536;HTU21D;9913;51.168;4.124;2022-12-08T09:50:04;4.61;79.73
19536;HTU21D;9913;51.168;4.124;2022-12-08T09:52:39;4.82;79.76
19536;HTU21D;9913;51.168;4.124;2022-12-08T09:55:16;4.86;79.48
19536;HTU21D;9913;51.168;4.124;2022-12-08T09:57:56;4.96;79.36
19536;HTU21D;9913;51.168;4.124;2022-12-08T10:00:29;4.77;79.24
19536;HTU21D;9913;51.168;4.124;2022-12-08T10:02:59;4.68;79.66
19536;HTU21D;9913;51.168;4.124;2022-12-08T10:05:32;4.96;79.33
19536;HTU21D;9913;51.168;4.124;2022-12-08T10:08:16;4.95;79.69
19536;HTU21D;9913;51.168;4.124;2022-12-08T10:10:53;5.01;79.14
19536;HTU21D;9913;51.168;4.124;2022-12-08T10:13:29;5.12;79.84
19536;HTU21D;9913;51.168;4.124;2022-12-08T10:16:09;5.17;78.89
19536;HTU21D;9913;51.168;4.124;2022-12-08T10:18:54;5.20;79.30
19536;HTU21D;9913;51.168;4.124;2022-12-08T10:21:26;5.19;79.21
19536;HTU21D;9913;51.168;4.124;2022-12-08T10:24:00;5.40;78.59
19536;HTU21D;9913;51.168;4.124;2022-12-08T10:26:32;5.61;79.06
19536;HTU21D;9913;51.168;4.124;2022-12-08T10:29:11;5.56;79.11
19536;HTU21D;9913;51.168;4.124;2022-12-08T10:31:47;5.33;79.12
19536;HTU21D;9913;51.168;4.124;2022-12-08T10:34:22;5.61;79.22
19536;HTU21D;9913;51.168;4.124;2022-12-08T10:36:52;5.45;79.40
19536;HTU21D;9913;51.168;4.124;2022-12-08T10:39:34;5.64;78.45
19536;HTU21D;9913;51.168;4.124;2022-12-08T10:42:14;5.50;78.84
19536;HTU21D;9913;51.168;4.124;2022-12-08T10:44:54;5.56;78.88
19536;HTU21D;9913;51.168;4.124;2022-12-08T10:47:26;5.62;79.34
19536;HTU21D;9913;51.168;4.124;2022-12-08T10:50:15;5.70;79.14
19536;HTU21D;9913;51.168;4.124;2022-12-08T10:52:45;5.70;78.57
19536;HTU21D;9913;51.168;4.124;2022-12-08T10:55:22;5.54;78.81
19536;HTU21D;9913;51.168;4.124;2022-12-08T10:57:51;5.33;79.07
19536;HTU21D;9913;51.168;4.124;2022-12-08T11:00:21;5.36;79.80
19536;HTU21D;9913;51.168;4.124;2022-12-08T11:02:53;5.31;79.66
19536;HTU21D;9913;51.168;4.124;2022-12-08T11:05:26;5.09;79.04
19536;HTU21D;9913;51.168;4.124;2022-12-08T11:07:55;5.09;79.24
19536;HTU21D;9913;51.168;4.124;2022-12-08T11:10:35;4.96;79.53
19536;HTU21D;9913;51.168;4.124;2022-12-08T11:13:06;5.00;79.30
19536;HTU21D;9913;51.168;4.124;2022-12-08T11:15:40;4.94;79.27
19536;HTU21D;9913;51.168;4.124;2022-12-08T11:18:21;4.79;79.62
19536;HTU21D;9913;51.168;4.124;2022-12-08T11:20:57;4.86;79.08
19536;HTU21D;9913;51.168;4.124;2022-12-08T11:23:27;4.74;79.83
19536;HTU21D;9913;51.168;4.124;2022-12-08T11:26:04;4.69;79.45
19536;HTU21D;9913;51.168;4.124;2022-12-08T11:28:34;4.56;79.53
19536;HTU21D;9913;51.168;4.124;2022-12-08T11:31:16;4.59;79.74
19536;HTU21D;9913;51.168;4.124;2022-12-08T11:33:48;4.94;79.47
19536;HTU21D;9913;51.168;4.124;2022-12-08T11:36:19;5.15;80.44
19536;HTU21D;9913;51.168;4.124;2022-12-08T11:38:50;5.56;79.28
19536;HTU21D;9913;51.168;4.124;2022-12-08T11:41:26;5.69;78.87
19536;HTU21D;9913;51.168;4.124;2022-12-08T11:44:00;5.80;79.19
19536;HTU21D;9913;51.168;4.124;2022-12-08T11:46:33;5.90;78.48
19536;HTU21D;9913;51.168;4.124;2022-12-08T11:49:08;6.10;79.82
19536;HTU21D;9913;51.168;4.124;2022-12-08T11:51:39;6.07;79.95
19536;HTU21D;9913;51.168;4.124;2022-12-08T11:54:17;6.15;78.59
19536;HTU21D;9913;51.168;4.124;2022-12-08T11:56:48;5.97;80.18
19536;HTU21D;9913;51.168;4.124;2022-12-08T11:59:24;6.00;79.18
19536;HTU21D;9913;51.168;4.124;2022-12-08T12:01:55;5.89;78.71
19536;HTU21D;9913;51.168;4.124;2022-12-08T12:04:30;5.78;78.62
19536;HTU21D;9913;51.168;4.124;2022-12-08T12:07:22;5.62;79.33
19536;HTU21D;9913;51.168;4.124;2022-12-08T12:10:11;5.53;78.85
19536;HTU21D;9913;51.168;4.124;2022-12-08T12:12:55;5.47;79.34
19536;HTU21D;9913;51.168;4.124;2022-12-08T12:18:36;4.89;79.62
19536;HTU21D;9913;51.168;4.124;2022-12-08T12:21:10;4.46;79.74
19536;HTU21D;9913;51.168;4.124;2022-12-08T12:23:44;3.93;80.12
19536;HTU21D;9913;51.168;4.124;2022-12-08T12:26:19;3.70;80.59
19536;HTU21D;9913;51.168;4.124;2022-12-08T12:28:52;3.64;80.81
19536;HTU21D;9913;51.168;4.124;2022-12-08T12:31:24;3.44;81.06
19536;HTU21D;9913;51.168;4.124;2022-12-08T12:34:02;3.11;81.48
19536;HTU21D;9913;51.168;4.124;2022-12-08T12:36:46;2.87;82.12
19536;HTU21D;9913;51.168;4.124;2022-12-08T12:39:19;2.91;82.57
19536;HTU21D;9913;51.168;4.124;2022-12-08T12:41:51;2.71;82.76
19536;HTU21D;9913;51.168;4.124;2022-12-08T12:44:37;2.67;83.20
19536;HTU21D;9913;51.168;4.124;2022-12-08T12:47:13;2.68;83.56
19536;HTU21D;9913;51.168;4.124;2022-12-08T12:50:06;2.68;83.83
19536;HTU21D;9913;51.168;4.124;2022-12-08T12:52:43;2.72;83.79
19536;HTU21D;9913;51.168;4.124;2022-12-08T12:55:53;2.72;83.86
19536;HTU21D;9913;51.168;4.124;2022-12-08T12:58:35;2.76;84.20
19536;HTU21D;9913;51.168;4.124;2022-12-08T13:04:11;2.81;84.45
19536;HTU21D;9913;51.168;4.124;2022-12-08T13:06:42;2.88;84.87
19536;HTU21D;9913;51.168;4.124;2022-12-08T13:09:21;2.83;84.78
19536;HTU21D;9913;51.168;4.124;2022-12-08T13:11:53;2.83;85.02
19536;HTU21D;9913;51.168;4.124;2022-12-08T13:14:33;2.87;85.05
19536;HTU21D;9913;51.168;4.124;2022-12-08T13:17:06;2.82;84.97
19536;HTU21D;9913;51.168;4.124;2022-12-08T13:19:39;2.89;85.13
19536;HTU21D;9913;51.168;4.124;2022-12-08T13:22:45;3.08;85.47
19536;HTU21D;9913;51.168;4.124;2022-12-08T13:25:47;3.06;84.65
19536;HTU21D;9913;51.168;4.124;2022-12-08T13:28:19;3.08;83.98
19536;HTU21D;9913;51.168;4.124;2022-12-08T13:30:48;3.13;84.10
19536;HTU21D;9913;51.168;4.124;2022-12-08T13:33:21;3.06;84.19
19536;HTU21D;9913;51.168;4.124;2022-12-08T13:35:59;3.13;84.21
19536;HTU21D;9913;51.168;4.124;2022-12-08T13:38:31;3.21;84.35
19536;HTU21D;9913;51.168;4.124;2022-12-08T13:41:06;3.21;84.81
19536;HTU21D;9913;51.168;4.124;2022-12-08T13:43:40;3.21;84.69
19536;HTU21D;9913;51.168;4.124;2022-12-08T13:46:35;3.32;84.45
19536;HTU21D;9913;51.168;4.124;2022-12-08T13:49:28;3.24;84.01
19536;HTU21D;9913;51.168;4.124;2022-12-08T13:52:27;3.18;83.80
19536;HTU21D;9913;51.168;4.124;2022-12-08T13:55:21;3.13;83.59
19536;HTU21D;9913;51.168;4.124;2022-12-08T13:58:19;3.09;83.52
19536;HTU21D;9913;51.168;4.124;2022-12-08T14:01:03;3.14;83.85
19536;HTU21D;9913;51.168;4.124;2022-12-08T14:03:49;3.15;83.78
19536;HTU21D;9913;51.168;4.124;2022-12-08T14:06:42;3.28;83.76
19536;HTU21D;9913;51.168;4.124;2022-12-08T14:09:16;3.31;83.57
19536;HTU21D;9913;51.168;4.124;2022-12-08T14:11:50;3.31;83.53
19536;HTU21D;9913;51.168;4.124;2022-12-08T14:14:22;3.34;82.90
19536;HTU21D;9913;51.168;4.124;2022-12-08T14:17:16;3.35;83.05
19536;HTU21D;9913;51.168;4.124;2022-12-08T14:19:52;3.45;83.04
19536;HTU21D;9913;51.168;4.124;2022-12-08T14:22:22;3.43;82.72
19536;HTU21D;9913;51.168;4.124;2022-12-08T14:24:53;3.36;82.93
19536;HTU21D;9913;51.168;4.124;2022-12-08T14:27:23;3.33;82.84
19536;HTU21D;9913;51.168;4.124;2022-12-08T14:29:54;3.45;83.20
19536;HTU21D;9913;51.168;4.124;2022-12-08T14:32:27;3.45;82.90
19536;HTU21D;9913;51.168;4.124;2022-12-08T14:34:59;3.41;82.84
19536;HTU21D;9913;51.168;4.124;2022-12-08T14:37:31;3.34;82.76
19536;HTU21D;9913;51.168;4.124;2022-12-08T14:40:05;3.31;83.04
19536;HTU21D;9913;51.168;4.124;2022-12-08T14:42:42;3.33;83.61
19536;HTU21D;9913;51.168;4.124;2022-12-08T14:45:13;3.33;83.46
19536;HTU21D;9913;51.168;4.124;2022-12-08T14:47:42;3.34;83.43
19536;HTU21D;9913;51.168;4.124;2022-12-08T14:50:38;3.29;83.27
19536;HTU21D;9913;51.168;4.124;2022-12-08T14:53:13;3.26;82.94
19536;HTU21D;9913;51.168;4.124;2022-12-08T14:55:46;3.26;83.11
19536;HTU21D;9913;51.168;4.124;2022-12-08T14:58:17;3.31;83.66
19536;HTU21D;9913;51.168;4.124;2022-12-08T15:00:53;3.21;83.61
19536;HTU21D;9913;51.168;4.124;2022-12-08T15:03:26;3.19;83.46
19536;HTU21D;9913;51.168;4.124;2022-12-08T15:05:57;3.18;83.66
19536;HTU21D;9913;51.168;4.124;2022-12-08T15:08:29;3.16;83.80
19536;HTU21D;9913;51.168;4.124;2022-12-08T15:11:28;3.05;83.87
19536;HTU21D;9913;51.168;4.124;2022-12-08T15:13:57;3.02;83.90
19536;HTU21D;9913;51.168;4.124;2022-12-08T15:16:28;3.00;84.39
19536;HTU21D;9913;51.168;4.124;2022-12-08T15:19:11;2.97;84.38
19536;HTU21D;9913;51.168;4.124;2022-12-08T15:21:44;3.00;84.32
19536;HTU21D;9913;51.168;4.124;2022-12-08T15:24:21;2.98;84.35
19536;HTU21D;9913;51.168;4.124;2022-12-08T15:26:52;2.96;84.39
19536;HTU21D;9913;51.168;4.124;2022-12-08T15:29:22;2.93;84.47
19536;HTU21D;9913;51.168;4.124;2022-12-08T15:31:52;2.96;84.48
19536;HTU21D;9913;51.168;4.124;2022-12-08T15:34:21;2.89;84.83
19536;HTU21D;9913;51.168;4.124;2022-12-08T15:36:51;2.84;84.35
19536;HTU21D;9913;51.168;4.124;2022-12-08T15:39:27;2.82;83.98
19536;HTU21D;9913;51.168;4.124;2022-12-08T15:41:59;2.79;84.12
19536;HTU21D;9913;51.168;4.124;2022-12-08T15:44:28;2.74;84.32
19536;HTU21D;9913;51.168;4.124;2022-12-08T15:46:59;2.72;84.40
19536;HTU21D;9913;51.168;4.124;2022-12-08T15:49:27;2.64;84.40
19536;HTU21D;9913;51.168;4.124;2022-12-08T15:51:56;2.66;84.61
19536;HTU21D;9913;51.168;4.124;2022-12-08T15:54:37;2.47;84.78
19536;HTU21D;9913;51.168;4.124;2022-12-08T15:57:18;2.54;84.92
19536;HTU21D;9913;51.168;4.124;2022-12-08T16:00:24;2.52;84.81
19536;HTU21D;9913;51.168;4.124;2022-12-08T16:03:19;2.45;84.66
19536;HTU21D;9913;51.168;4.124;2022-12-08T16:06:12;2.38;84.76
19536;HTU21D;9913;51.168;4.124;2022-12-08T16:09:03;2.30;84.81
19536;HTU21D;9913;51.168;4.124;2022-12-08T16:11:38;2.23;85.03
19536;HTU21D;9913;51.168;4.124;2022-12-08T16:14:36;2.16;85.18
19536;HTU21D;9913;51.168;4.124;2022-12-08T16:17:25;2.10;85.38
19536;HTU21D;9913;51.168;4.124;2022-12-08T16:19:54;2.01;85.52
19536;HTU21D;9913;51.168;4.124;2022-12-08T16:22:24;1.97;85.61
19536;HTU21D;9913;51.168;4.124;2022-12-08T16:25:13;1.90;86.02
19536;HTU21D;9913;51.168;4.124;2022-12-08T16:27:47;1.93;86.15
19536;HTU21D;9913;51.168;4.124;2022-12-08T16:30:37;1.87;86.00
19536;HTU21D;9913;51.168;4.124;2022-12-08T16:33:05;1.87;85.81